Chaves — CQMY — position and weather

sailwx.info

Track history (hours):
 
Tides and Currents Weather Stations Pressure Air Temp Water Temp Dewpoint Dewpoint Depression Visibility Wind Speed Wind Dir Waves Ship Positions

Chaves

Last reported at 2018-Feb-16 22:33 UTC. Time now 2018-Feb-20 10:00 UTC.
Position N 41°16' W 008°50'.

Length 90 m; draft 4.4 m.

Type: Ship. MMSI: 255803660.

Date/timePositionNaut miles runAvg speedWind from/ knotsBaromVisibWave heightAir tempDewpointWater temp
2018-Feb-16 22:33N 41°16' W 008°50'1 9.9
2018-Feb-16 22:28N 41°15' W 008°50'5 9.8
2018-Feb-16 22:00N 41°11' W 008°47'3 6.5
2018-Feb-16 21:30N 41°11' W 008°42'1 1.9
2018-Feb-16 20:57N 41°12' W 008°41'0 0.0
2018-Feb-16 20:27N 41°12' W 008°41'0 0.0
2018-Feb-16 20:00N 41°12' W 008°41'0 0.0
2018-Feb-16 19:27N 41°12' W 008°41'0 0.0
2018-Feb-16 19:00N 41°12' W 008°41'0 0.0
2018-Feb-16 18:30N 41°12' W 008°41'0 0.0
2018-Feb-16 18:00N 41°12' W 008°41'0 0.0
2018-Feb-16 17:30N 41°12' W 008°41'0 0.0
2018-Feb-16 17:00N 41°12' W 008°41'0 0.0
2018-Feb-16 16:24N 41°12' W 008°41'0 0.0
2018-Feb-16 16:00N 41°12' W 008°41'0 0.0
2018-Feb-16 15:30N 41°12' W 008°41'0 0.0
2018-Feb-16 15:00N 41°12' W 008°41'0 0.0
2018-Feb-16 14:30N 41°12' W 008°41'0 0.0
2018-Feb-16 14:00N 41°12' W 008°41'0 0.0
2018-Feb-16 13:30N 41°12' W 008°41'0 0.0
2018-Feb-16 13:00N 41°12' W 008°41'0 0.0
2018-Feb-16 12:30N 41°12' W 008°41'0 0.0
2018-Feb-16 12:00N 41°12' W 008°41'0 0.0
2018-Feb-16 11:30N 41°12' W 008°41'0 0.0
2018-Feb-16 11:00N 41°12' W 008°41'0 0.0
2018-Feb-16 10:30N 41°12' W 008°41'0 0.0
2018-Feb-16 10:00N 41°12' W 008°41'0 0.0
2018-Feb-16 09:30N 41°12' W 008°41'0 0.0
2018-Feb-16 09:00N 41°12' W 008°41'0 0.0
2018-Feb-16 08:30N 41°12' W 008°41'0 0.0
2018-Feb-16 08:00N 41°12' W 008°41'0 0.0
2018-Feb-16 07:30N 41°12' W 008°41'0 0.0
2018-Feb-16 07:00N 41°12' W 008°41'0 0.9
2018-Feb-16 06:30N 41°11' W 008°42'3 5.8
2018-Feb-16 06:00N 41°09' W 008°44'2 4.9
2018-Feb-16 05:30N 41°07' W 008°46'98 8.8
2018-Feb-15 18:24N 39°37' W 009°39'410.9
2018-Feb-15 18:00N 39°33' W 009°41'510.9
2018-Feb-15 17:30N 39°28' W 009°43'611.3
2018-Feb-15 17:00N 39°23' W 009°43'611.5
2018-Feb-15 16:30N 39°17' W 009°43'611.2
2018-Feb-15 16:00N 39°11' W 009°43'511.0
2018-Feb-15 15:30N 39°06' W 009°43'510.7
2018-Feb-15 15:00N 39°00' W 009°43'611.1
2018-Feb-15 14:30N 38°55' W 009°43'611.1
2018-Feb-15 13:59N 38°49' W 009°42'511.1
2018-Feb-15 13:30N 38°44' W 009°42'510.2
2018-Feb-15 13:00N 38°39' W 009°41'510.3
2018-Feb-15 12:30N 38°36' W 009°35'510.3
2018-Feb-15 12:00N 38°34' W 009°29'510.3
2018-Feb-15 11:30N 38°31' W 009°24'5 9.9
2018-Feb-15 11:00N 38°28' W 009°19'510.1
2018-Feb-15 10:30N 38°24' W 009°15'510.2
2018-Feb-15 10:00N 38°24' W 009°08'510.4
2018-Feb-15 09:30N 38°25' W 009°02'510.7
2018-Feb-15 09:00N 38°28' W 008°57'5 8.6
2018-Feb-15 08:29N 38°30' W 008°52'1 1.9
2018-Feb-15 07:58N 38°30' W 008°51'0 0.0
2018-Feb-15 07:19N 38°30' W 008°51'0 0.0
2018-Feb-15 06:52N 38°30' W 008°51'0 0.0
2018-Feb-15 06:25N 38°30' W 008°51'0 0.0
2018-Feb-15 05:55N 38°30' W 008°51'0 0.0
2018-Feb-15 05:28N 38°30' W 008°51'0 0.0
2018-Feb-15 04:55N 38°30' W 008°51'0 0.0
2018-Feb-15 04:28N 38°30' W 008°51'0 0.0
2018-Feb-15 03:55N 38°30' W 008°51'0 0.0
2018-Feb-15 03:19N 38°30' W 008°51'0 0.0
2018-Feb-15 02:55N 38°30' W 008°51'0 0.0
2018-Feb-15 02:28N 38°30' W 008°51'0 0.0
2018-Feb-15 01:58N 38°30' W 008°51'0 0.0
2018-Feb-15 01:28N 38°30' W 008°51'0 0.0
2018-Feb-15 00:58N 38°30' W 008°51'0 0.0
2018-Feb-15 00:28N 38°30' W 008°51'0 0.0
2018-Feb-14 23:58N 38°30' W 008°51'0 0.0
2018-Feb-14 23:28N 38°30' W 008°51'0 0.0
2018-Feb-14 22:46N 38°30' W 008°51'0 0.0
2018-Feb-14 22:28N 38°30' W 008°51'0 0.0
2018-Feb-14 21:52N 38°30' W 008°51'0 0.0
2018-Feb-14 21:28N 38°30' W 008°51'0 0.0
2018-Feb-14 20:58N 38°30' W 008°51'0 0.0
2018-Feb-14 20:28N 38°30' W 008°51'0 0.0
2018-Feb-14 19:58N 38°30' W 008°51'0 0.0
2018-Feb-14 19:22N 38°30' W 008°51'0 0.0
2018-Feb-14 18:58N 38°30' W 008°51'0 0.0
2018-Feb-14 18:28N 38°30' W 008°51'0 0.0
2018-Feb-14 17:55N 38°30' W 008°51'0 0.0
2018-Feb-14 17:28N 38°30' W 008°51'0 0.0
2018-Feb-14 16:40N 38°30' W 008°51'0 0.0
2018-Feb-14 16:25N 38°30' W 008°51'0 0.0
2018-Feb-14 15:43N 38°30' W 008°51'0 0.0
2018-Feb-14 15:25N 38°30' W 008°51'0 0.0
2018-Feb-14 14:55N 38°30' W 008°51'0 0.0
2018-Feb-14 14:10N 38°30' W 008°51'0 0.0
2018-Feb-14 13:58N 38°30' W 008°51'0 0.0
2018-Feb-14 13:28N 38°30' W 008°51'0 0.0
2018-Feb-14 12:55N 38°30' W 008°51'0 0.0
2018-Feb-14 12:25N 38°30' W 008°51'0 0.0
2018-Feb-14 11:49N 38°30' W 008°51'0 0.0
2018-Feb-14 11:22N 38°30' W 008°51'0 0.0
2018-Feb-14 10:58N 38°30' W 008°51'0 0.0
2018-Feb-14 10:25N 38°30' W 008°51'0 0.0
2018-Feb-14 09:52N 38°30' W 008°51'0 0.0
2018-Feb-14 09:28N 38°30' W 008°51'0 0.0
2018-Feb-14 08:58N 38°30' W 008°51'0 0.0
2018-Feb-14 08:19N 38°30' W 008°51'0 0.0
2018-Feb-14 07:55N 38°30' W 008°51'0 0.8
2018-Feb-14 07:25N 38°30' W 008°51'2 3.9
2018-Feb-14 07:00N 38°31' W 008°53'1 1.4
2018-Feb-14 06:30N 38°31' W 008°54'0 0.1
2018-Feb-14 05:54N 38°31' W 008°54'0 0.0
2018-Feb-14 05:30N 38°31' W 008°54'0 0.0
2018-Feb-14 04:48N 38°31' W 008°54'0 0.0
2018-Feb-14 04:03N 38°31' W 008°54'0 0.0
2018-Feb-14 03:36N 38°31' W 008°54'0 0.0
2018-Feb-14 03:21N 38°31' W 008°54'0 0.2
2018-Feb-14 02:51N 38°31' W 008°54'0 0.0
2018-Feb-14 02:27N 38°31' W 008°54'0 0.0
2018-Feb-14 01:15N 38°31' W 008°54'0 0.0
2018-Feb-13 23:48N 38°31' W 008°54'0 0.0
2018-Feb-13 22:39N 38°31' W 008°54'0 0.0
2018-Feb-13 21:15N 38°31' W 008°54'0 0.0
2018-Feb-13 20:51N 38°31' W 008°54'0 0.1
2018-Feb-13 19:36N 38°31' W 008°54'0 0.1
2018-Feb-13 19:24N 38°31' W 008°54'0 0.0
2018-Feb-13 19:00N 38°31' W 008°54'0 0.0
2018-Feb-13 18:27N 38°31' W 008°54'0 0.0
2018-Feb-13 07:09N 38°31' W 008°54'0 0.0
2018-Feb-13 06:42N 38°31' W 008°54'0 0.0
2018-Feb-13 06:27N 38°31' W 008°54'0 0.0
2018-Feb-13 05:42N 38°31' W 008°54'0 0.0
2018-Feb-13 05:30N 38°31' W 008°54'0 0.0
2018-Feb-13 05:00N 38°31' W 008°54'0 0.0
2018-Feb-13 03:33N 38°31' W 008°54'0 0.0
2018-Feb-13 03:21N 38°31' W 008°54'0 0.1
2018-Feb-13 02:27N 38°31' W 008°54'0 0.0
2018-Feb-12 19:21N 38°31' W 008°54'0 0.0
2018-Feb-12 17:16N 38°31' W 008°54'0 0.2
2018-Feb-12 16:59N 38°31' W 008°54'3 6.2
2018-Feb-12 16:30N 38°29' W 008°56'4 8.6
2018-Feb-12 16:00N 38°25' W 008°60'1 2.6
2018-Feb-12 15:30N 38°25' W 009°01'4 8.7
2018-Feb-12 15:00N 38°24' W 009°07'5 9.1
2018-Feb-12 14:30N 38°24' W 009°13'4 8.6
2018-Feb-12 14:00N 38°23' W 009°18'4 8.3
2018-Feb-12 13:30N 38°24' W 009°23'4 8.9
2018-Feb-12 13:00N 38°25' W 009°29'1110.6
2018-Feb-12 11:57N 38°29' W 009°42'510.5
2018-Feb-12 11:30N 38°30' W 009°48'610.5
2018-Feb-12 10:57N 38°32' W 009°55'15 9.1
2018-Feb-12 09:16N 38°45' W 010°05'310.1
2018-Feb-12 09:00N 38°48' W 010°05'810.0
2018-Feb-12 08:11N 38°56' W 010°05'210.2
2018-Feb-12 08:00N 38°58' W 010°05'  
2018-Feb-08 17:00N 49°60' W 002°57'108 9.4
2018-Feb-08 05:30N 50°30' W 000°15'510.2
2018-Feb-08 05:00N 50°31' W 000°07'5 9.8
2018-Feb-08 04:30N 50°32' E 000°00'5 9.4
2018-Feb-08 04:00N 50°34' E 000°07'5 9.2
2018-Feb-08 03:30N 50°35' E 000°14'4 8.8
2018-Feb-08 03:00N 50°36' E 000°21'4 8.6
2018-Feb-08 02:30N 50°37' E 000°27'9 8.6
2018-Feb-08 01:30N 50°41' E 000°39'5 9.3
2018-Feb-08 01:00N 50°44' E 000°45'5 9.9
2018-Feb-08 00:30N 50°47' E 000°52'611.0
2018-Feb-08 00:00N 50°50' E 000°59'611.6
2018-Feb-07 23:30N 50°53' E 001°06'611.9
2018-Feb-07 23:01N 50°57' E 001°13'611.8
2018-Feb-07 22:30N 51°01' E 001°21'611.2
2018-Feb-07 22:00N 51°04' E 001°28'510.3
2018-Feb-07 21:31N 51°07' E 001°34'182 9.4
2018-Feb-07 02:09N 53°19' E 004°59'1 8.2
2018-Feb-07 02:00N 53°19' E 005°01'3 5.7
2018-Feb-07 01:30N 53°19' E 005°05'3 6.5
2018-Feb-07 01:00N 53°18' E 005°11'4 8.1
2018-Feb-07 00:30N 53°14' E 005°11'4 8.0
2018-Feb-07 00:00N 53°13' E 005°17'4 7.4
2018-Feb-06 23:30N 53°11' E 005°22'2 3.7
2018-Feb-06 23:00N 53°11' E 005°25'  
Track history (hours):
 
Tides and Currents Weather Stations Pressure Air Temp Water Temp Dewpoint Dewpoint Depression Visibility Wind Speed Wind Dir Waves Ship Positions

Chaves

Last reported at 2018-Feb-16 22:33 UTC. Time now 2018-Feb-20 10:00 UTC.
Position N 41°16' W 008°50'.

Length 90 m; draft 4.4 m.

Type: Ship. MMSI: 255803660.

Date/timePositionNaut miles runAvg speedWind from/ knotsBaromVisibWave heightAir tempDewpointWater temp
2018-Feb-16 22:33N 41°16' W 008°50'1 9.9
2018-Feb-16 22:28N 41°15' W 008°50'5 9.8
2018-Feb-16 22:00N 41°11' W 008°47'3 6.5
2018-Feb-16 21:30N 41°11' W 008°42'1 1.9
2018-Feb-16 20:57N 41°12' W 008°41'0 0.0
2018-Feb-16 20:27N 41°12' W 008°41'0 0.0
2018-Feb-16 20:00N 41°12' W 008°41'0 0.0
2018-Feb-16 19:27N 41°12' W 008°41'0 0.0
2018-Feb-16 19:00N 41°12' W 008°41'0 0.0
2018-Feb-16 18:30N 41°12' W 008°41'0 0.0
2018-Feb-16 18:00N 41°12' W 008°41'0 0.0
2018-Feb-16 17:30N 41°12' W 008°41'0 0.0
2018-Feb-16 17:00N 41°12' W 008°41'0 0.0
2018-Feb-16 16:24N 41°12' W 008°41'0 0.0
2018-Feb-16 16:00N 41°12' W 008°41'0 0.0
2018-Feb-16 15:30N 41°12' W 008°41'0 0.0
2018-Feb-16 15:00N 41°12' W 008°41'0 0.0
2018-Feb-16 14:30N 41°12' W 008°41'0 0.0
2018-Feb-16 14:00N 41°12' W 008°41'0 0.0
2018-Feb-16 13:30N 41°12' W 008°41'0 0.0
2018-Feb-16 13:00N 41°12' W 008°41'0 0.0
2018-Feb-16 12:30N 41°12' W 008°41'0 0.0
2018-Feb-16 12:00N 41°12' W 008°41'0 0.0
2018-Feb-16 11:30N 41°12' W 008°41'0 0.0
2018-Feb-16 11:00N 41°12' W 008°41'0 0.0
2018-Feb-16 10:30N 41°12' W 008°41'0 0.0
2018-Feb-16 10:00N 41°12' W 008°41'0 0.0
2018-Feb-16 09:30N 41°12' W 008°41'0 0.0
2018-Feb-16 09:00N 41°12' W 008°41'0 0.0
2018-Feb-16 08:30N 41°12' W 008°41'0 0.0
2018-Feb-16 08:00N 41°12' W 008°41'0 0.0
2018-Feb-16 07:30N 41°12' W 008°41'0 0.0
2018-Feb-16 07:00N 41°12' W 008°41'0 0.9
2018-Feb-16 06:30N 41°11' W 008°42'3 5.8
2018-Feb-16 06:00N 41°09' W 008°44'2 4.9
2018-Feb-16 05:30N 41°07' W 008°46'98 8.8
2018-Feb-15 18:24N 39°37' W 009°39'410.9
2018-Feb-15 18:00N 39°33' W 009°41'510.9
2018-Feb-15 17:30N 39°28' W 009°43'611.3
2018-Feb-15 17:00N 39°23' W 009°43'611.5
2018-Feb-15 16:30N 39°17' W 009°43'611.2
2018-Feb-15 16:00N 39°11' W 009°43'511.0
2018-Feb-15 15:30N 39°06' W 009°43'510.7
2018-Feb-15 15:00N 39°00' W 009°43'611.1
2018-Feb-15 14:30N 38°55' W 009°43'611.1
2018-Feb-15 13:59N 38°49' W 009°42'511.1
2018-Feb-15 13:30N 38°44' W 009°42'510.2
2018-Feb-15 13:00N 38°39' W 009°41'510.3
2018-Feb-15 12:30N 38°36' W 009°35'510.3
2018-Feb-15 12:00N 38°34' W 009°29'510.3
2018-Feb-15 11:30N 38°31' W 009°24'5 9.9
2018-Feb-15 11:00N 38°28' W 009°19'510.1
2018-Feb-15 10:30N 38°24' W 009°15'510.2
2018-Feb-15 10:00N 38°24' W 009°08'510.4
2018-Feb-15 09:30N 38°25' W 009°02'510.7
2018-Feb-15 09:00N 38°28' W 008°57'5 8.6
2018-Feb-15 08:29N 38°30' W 008°52'1 1.9
2018-Feb-15 07:58N 38°30' W 008°51'0 0.0
2018-Feb-15 07:19N 38°30' W 008°51'0 0.0
2018-Feb-15 06:52N 38°30' W 008°51'0 0.0
2018-Feb-15 06:25N 38°30' W 008°51'0 0.0
2018-Feb-15 05:55N 38°30' W 008°51'0 0.0
2018-Feb-15 05:28N 38°30' W 008°51'0 0.0
2018-Feb-15 04:55N 38°30' W 008°51'0 0.0
2018-Feb-15 04:28N 38°30' W 008°51'0 0.0
2018-Feb-15 03:55N 38°30' W 008°51'0 0.0
2018-Feb-15 03:19N 38°30' W 008°51'0 0.0
2018-Feb-15 02:55N 38°30' W 008°51'0 0.0
2018-Feb-15 02:28N 38°30' W 008°51'0 0.0
2018-Feb-15 01:58N 38°30' W 008°51'0 0.0
2018-Feb-15 01:28N 38°30' W 008°51'0 0.0
2018-Feb-15 00:58N 38°30' W 008°51'0 0.0
2018-Feb-15 00:28N 38°30' W 008°51'0 0.0
2018-Feb-14 23:58N 38°30' W 008°51'0 0.0
2018-Feb-14 23:28N 38°30' W 008°51'0 0.0
2018-Feb-14 22:46N 38°30' W 008°51'0 0.0
2018-Feb-14 22:28N 38°30' W 008°51'0 0.0
2018-Feb-14 21:52N 38°30' W 008°51'0 0.0
2018-Feb-14 21:28N 38°30' W 008°51'0 0.0
2018-Feb-14 20:58N 38°30' W 008°51'0 0.0
2018-Feb-14 20:28N 38°30' W 008°51'0 0.0
2018-Feb-14 19:58N 38°30' W 008°51'0 0.0
2018-Feb-14 19:22N 38°30' W 008°51'0 0.0
2018-Feb-14 18:58N 38°30' W 008°51'0 0.0
2018-Feb-14 18:28N 38°30' W 008°51'0 0.0
2018-Feb-14 17:55N 38°30' W 008°51'0 0.0
2018-Feb-14 17:28N 38°30' W 008°51'0 0.0
2018-Feb-14 16:40N 38°30' W 008°51'0 0.0
2018-Feb-14 16:25N 38°30' W 008°51'0 0.0
2018-Feb-14 15:43N 38°30' W 008°51'0 0.0
2018-Feb-14 15:25N 38°30' W 008°51'0 0.0
2018-Feb-14 14:55N 38°30' W 008°51'0 0.0
2018-Feb-14 14:10N 38°30' W 008°51'0 0.0
2018-Feb-14 13:58N 38°30' W 008°51'0 0.0
2018-Feb-14 13:28N 38°30' W 008°51'0 0.0
2018-Feb-14 12:55N 38°30' W 008°51'0 0.0
2018-Feb-14 12:25N 38°30' W 008°51'0 0.0
2018-Feb-14 11:49N 38°30' W 008°51'0 0.0
2018-Feb-14 11:22N 38°30' W 008°51'0 0.0
2018-Feb-14 10:58N 38°30' W 008°51'0 0.0
2018-Feb-14 10:25N 38°30' W 008°51'0 0.0
2018-Feb-14 09:52N 38°30' W 008°51'0 0.0
2018-Feb-14 09:28N 38°30' W 008°51'0 0.0
2018-Feb-14 08:58N 38°30' W 008°51'0 0.0
2018-Feb-14 08:19N 38°30' W 008°51'0 0.0
2018-Feb-14 07:55N 38°30' W 008°51'0 0.8
2018-Feb-14 07:25N 38°30' W 008°51'2 3.9
2018-Feb-14 07:00N 38°31' W 008°53'1 1.4
2018-Feb-14 06:30N 38°31' W 008°54'0 0.1
2018-Feb-14 05:54N 38°31' W 008°54'0 0.0
2018-Feb-14 05:30N 38°31' W 008°54'0 0.0
2018-Feb-14 04:48N 38°31' W 008°54'0 0.0
2018-Feb-14 04:03N 38°31' W 008°54'0 0.0
2018-Feb-14 03:36N 38°31' W 008°54'0 0.0
2018-Feb-14 03:21N 38°31' W 008°54'0 0.2
2018-Feb-14 02:51N 38°31' W 008°54'0 0.0
2018-Feb-14 02:27N 38°31' W 008°54'0 0.0
2018-Feb-14 01:15N 38°31' W 008°54'0 0.0
2018-Feb-13 23:48N 38°31' W 008°54'0 0.0
2018-Feb-13 22:39N 38°31' W 008°54'0 0.0
2018-Feb-13 21:15N 38°31' W 008°54'0 0.0
2018-Feb-13 20:51N 38°31' W 008°54'0 0.1
2018-Feb-13 19:36N 38°31' W 008°54'0 0.1
2018-Feb-13 19:24N 38°31' W 008°54'0 0.0
2018-Feb-13 19:00N 38°31' W 008°54'0 0.0
2018-Feb-13 18:27N 38°31' W 008°54'0 0.0
2018-Feb-13 07:09N 38°31' W 008°54'0 0.0
2018-Feb-13 06:42N 38°31' W 008°54'0 0.0
2018-Feb-13 06:27N 38°31' W 008°54'0 0.0
2018-Feb-13 05:42N 38°31' W 008°54'0 0.0
2018-Feb-13 05:30N 38°31' W 008°54'0 0.0
2018-Feb-13 05:00N 38°31' W 008°54'0 0.0
2018-Feb-13 03:33N 38°31' W 008°54'0 0.0
2018-Feb-13 03:21N 38°31' W 008°54'0 0.1
2018-Feb-13 02:27N 38°31' W 008°54'0 0.0
2018-Feb-12 19:21N 38°31' W 008°54'0 0.0
2018-Feb-12 17:16N 38°31' W 008°54'0 0.2
2018-Feb-12 16:59N 38°31' W 008°54'3 6.2
2018-Feb-12 16:30N 38°29' W 008°56'4 8.6
2018-Feb-12 16:00N 38°25' W 008°60'1 2.6
2018-Feb-12 15:30N 38°25' W 009°01'4 8.7
2018-Feb-12 15:00N 38°24' W 009°07'5 9.1
2018-Feb-12 14:30N 38°24' W 009°13'4 8.6
2018-Feb-12 14:00N 38°23' W 009°18'4 8.3
2018-Feb-12 13:30N 38°24' W 009°23'4 8.9
2018-Feb-12 13:00N 38°25' W 009°29'1110.6
2018-Feb-12 11:57N 38°29' W 009°42'510.5
2018-Feb-12 11:30N 38°30' W 009°48'610.5
2018-Feb-12 10:57N 38°32' W 009°55'15 9.1
2018-Feb-12 09:16N 38°45' W 010°05'310.1
2018-Feb-12 09:00N 38°48' W 010°05'810.0
2018-Feb-12 08:11N 38°56' W 010°05'210.2
2018-Feb-12 08:00N 38°58' W 010°05'  
2018-Feb-08 17:00N 49°60' W 002°57'108 9.4
2018-Feb-08 05:30N 50°30' W 000°15'510.2
2018-Feb-08 05:00N 50°31' W 000°07'5 9.8
2018-Feb-08 04:30N 50°32' E 000°00'5 9.4
2018-Feb-08 04:00N 50°34' E 000°07'5 9.2
2018-Feb-08 03:30N 50°35' E 000°14'4 8.8
2018-Feb-08 03:00N 50°36' E 000°21'4 8.6
2018-Feb-08 02:30N 50°37' E 000°27'9 8.6
2018-Feb-08 01:30N 50°41' E 000°39'5 9.3
2018-Feb-08 01:00N 50°44' E 000°45'5 9.9
2018-Feb-08 00:30N 50°47' E 000°52'611.0
2018-Feb-08 00:00N 50°50' E 000°59'611.6
2018-Feb-07 23:30N 50°53' E 001°06'611.9
2018-Feb-07 23:01N 50°57' E 001°13'611.8
2018-Feb-07 22:30N 51°01' E 001°21'611.2
2018-Feb-07 22:00N 51°04' E 001°28'510.3
2018-Feb-07 21:31N 51°07' E 001°34'182 9.4
2018-Feb-07 02:09N 53°19' E 004°59'1 8.2
2018-Feb-07 02:00N 53°19' E 005°01'3 5.7
2018-Feb-07 01:30N 53°19' E 005°05'3 6.5
2018-Feb-07 01:00N 53°18' E 005°11'4 8.1
2018-Feb-07 00:30N 53°14' E 005°11'4 8.0
2018-Feb-07 00:00N 53°13' E 005°17'4 7.4
2018-Feb-06 23:30N 53°11' E 005°22'2 3.7
2018-Feb-06 23:00N 53°11' E 005°25'  

Dump ship's entire track history